Time;durP1;ratioP1;P1;durP2;ratioP2;P2;SDS_P1;SDS_P2;PMS_P1;PMS_P2;Temp;Humidity;BMP_temperature;BMP_pressure;BME280_temperature;BME280_humidity;BME280_pressure;Samples;Min_cycle;Max_cycle;Signal;HPM_P1;HPM_P2
2022/08/10 00:00:28;;;;;;;3.63;1.40;;;15.20;99.90;;;;;;5007910;28;20026;-61
2022/08/10 00:02:56;;;;;;;1.92;0.82;;;15.20;99.90;;;;;;5008513;28;20022;-59
2022/08/10 00:05:23;;;;;;;2.90;1.15;;;15.20;99.90;;;;;;5022598;28;20056;-60
2022/08/10 00:07:49;;;;;;;3.67;1.90;;;15.20;99.90;;;;;;5016674;28;20026;-60
2022/08/10 00:10:17;;;;;;;4.20;1.48;;;15.10;99.90;;;;;;5007618;28;20034;-61
2022/08/10 00:12:43;;;;;;;1.33;1.23;;;15.10;99.90;;;;;;5026293;28;20021;-61
2022/08/10 00:15:11;;;;;;;1.90;1.00;;;15.10;99.90;;;;;;5019330;28;20057;-62
2022/08/10 00:17:37;;;;;;;6.90;2.00;;;15.10;99.90;;;;;;5017592;28;20026;-62
2022/08/10 00:20:03;;;;;;;6.95;1.95;;;15.20;99.90;;;;;;4999535;28;20034;-61
2022/08/10 00:22:29;;;;;;;2.63;1.80;;;15.20;99.90;;;;;;5012791;28;20025;-61
2022/08/10 00:24:56;;;;;;;2.38;1.48;;;15.10;99.90;;;;;;5024694;28;20041;-60
2022/08/10 00:27:23;;;;;;;6.50;1.50;;;15.20;99.90;;;;;;5020171;28;20108;-62
2022/08/10 00:29:50;;;;;;;2.83;1.50;;;15.20;99.90;;;;;;5011931;28;20118;-62
2022/08/10 00:32:16;;;;;;;3.53;1.55;;;15.10;99.90;;;;;;5015647;28;20030;-61
2022/08/10 00:34:42;;;;;;;2.17;1.15;;;15.20;99.90;;;;;;5011898;28;20425;-59
2022/08/10 00:37:07;;;;;;;2.28;1.30;;;15.10;99.90;;;;;;5018649;28;20101;-61
2022/08/10 00:39:33;;;;;;;2.55;1.70;;;15.20;99.90;;;;;;5013070;28;20026;-61
2022/08/10 00:41:59;;;;;;;2.90;1.52;;;15.20;99.90;;;;;;5015671;28;20069;-60
2022/08/10 00:44:24;;;;;;;3.78;1.33;;;15.20;99.90;;;;;;5019858;28;20099;-60
2022/08/10 00:46:50;;;;;;;4.38;1.50;;;15.20;99.90;;;;;;5014237;28;20026;-60
2022/08/10 00:49:16;;;;;;;3.42;1.40;;;15.20;99.90;;;;;;5016871;28;20037;-62
2022/08/10 00:51:42;;;;;;;3.50;1.60;;;15.30;99.90;;;;;;5012649;28;20048;-60
2022/08/10 00:54:08;;;;;;;3.25;1.63;;;15.30;99.90;;;;;;5020858;28;20167;-60
2022/08/10 00:56:35;;;;;;;3.72;1.20;;;15.30;99.90;;;;;;5022691;28;20033;-60
2022/08/10 00:59:01;;;;;;;2.70;1.40;;;15.20;99.90;;;;;;5022347;28;20021;-60
2022/08/10 01:01:27;;;;;;;5.68;1.35;;;15.30;99.90;;;;;;5017014;28;20076;-59
2022/08/10 01:03:52;;;;;;;1.63;1.17;;;15.30;99.90;;;;;;5014578;28;20041;-59
2022/08/10 01:06:35;;;;;;;2.80;1.08;;;15.30;99.90;;;;;;5010608;28;20030;-59
2022/08/10 01:09:10;;;;;;;2.17;1.08;;;15.30;99.90;;;;;;5002924;28;20030;-59
2022/08/10 01:11:53;;;;;;;1.45;0.90;;;15.20;99.90;;;;;;5014445;28;20033;-60
2022/08/10 01:14:34;;;;;;;2.20;1.17;;;15.20;99.90;;;;;;5021827;28;20036;-59
2022/08/10 01:17:07;;;;;;;3.40;1.25;;;15.20;99.90;;;;;;5009493;28;20033;-60
2022/08/10 01:20:05;;;;;;;3.72;1.05;;;15.20;99.90;;;;;;5015124;28;21214;-59
2022/08/10 01:22:53;;;;;;;3.70;1.10;;;15.10;99.90;;;;;;4993868;28;20042;-60
2022/08/10 01:25:25;;;;;;;3.30;1.40;;;15.00;99.90;;;;;;5004459;28;20038;-60
2022/08/10 01:27:57;;;;;;;1.83;1.00;;;15.00;99.90;;;;;;5016792;28;20025;-60
2022/08/10 01:30:27;;;;;;;6.18;1.83;;;14.90;99.90;;;;;;5011819;28;20069;-60
2022/08/10 01:33:11;;;;;;;4.10;1.27;;;14.90;99.90;;;;;;5023702;28;20026;-60
2022/08/10 01:35:44;;;;;;;2.95;1.38;;;14.80;99.90;;;;;;5016204;28;20521;-60
2022/08/10 01:38:15;;;;;;;2.83;1.20;;;14.70;99.90;;;;;;5013520;28;20501;-60
2022/08/10 01:40:47;;;;;;;6.18;1.58;;;14.70;99.90;;;;;;5009166;28;20025;-60
2022/08/10 01:43:16;;;;;;;3.03;1.70;;;14.80;99.90;;;;;;5014379;28;20041;-60
2022/08/10 01:45:46;;;;;;;4.10;1.60;;;15.10;99.90;;;;;;5017635;28;20433;-59
2022/08/10 01:48:30;;;;;;;4.07;1.73;;;15.10;99.90;;;;;;5027029;28;20052;-60
2022/08/10 01:51:21;;;;;;;6.10;1.67;;;15.20;99.90;;;;;;5010208;28;20038;-59
2022/08/10 01:54:00;;;;;;;5.60;1.70;;;15.30;99.90;;;;;;5017170;28;20026;-59
2022/08/10 01:56:29;;;;;;;3.78;1.80;;;15.30;99.90;;;;;;5016538;28;20277;-59
2022/08/10 01:58:58;;;;;;;3.85;2.13;;;15.40;99.90;;;;;;5011683;28;20034;-59
2022/08/10 02:01:28;;;;;;;2.83;1.80;;;15.40;99.90;;;;;;5012712;28;20033;-60
2022/08/10 02:03:58;;;;;;;3.72;2.03;;;15.40;99.90;;;;;;5017416;28;20022;-59
2022/08/10 02:06:26;;;;;;;3.40;1.80;;;15.40;99.90;;;;;;5013637;28;20038;-59
2022/08/10 02:08:54;;;;;;;3.13;1.70;;;15.40;99.90;;;;;;5009375;28;20040;-60
2022/08/10 02:11:22;;;;;;;3.63;1.73;;;15.40;99.90;;;;;;5018261;28;20030;-60
2022/08/10 02:13:48;;;;;;;3.33;1.80;;;15.40;99.90;;;;;;5018241;28;20033;-59
2022/08/10 02:16:18;;;;;;;4.55;2.03;;;15.40;99.90;;;;;;5015044;28;20026;-60
2022/08/10 02:18:45;;;;;;;4.57;1.70;;;15.40;99.90;;;;;;5012688;28;20478;-60
2022/08/10 02:21:11;;;;;;;2.13;1.63;;;15.30;99.90;;;;;;5014710;28;20564;-60
2022/08/10 02:23:40;;;;;;;4.18;1.83;;;15.20;99.90;;;;;;5025884;28;20021;-59
2022/08/10 02:26:07;;;;;;;6.68;2.00;;;15.20;99.90;;;;;;5012508;28;20034;-61
2022/08/10 02:28:35;;;;;;;5.55;2.10;;;15.20;99.90;;;;;;5017312;28;20050;-59
2022/08/10 02:31:10;;;;;;;5.28;1.70;;;15.20;99.90;;;;;;5021704;28;20052;-60
2022/08/10 02:33:37;;;;;;;5.53;1.85;;;15.30;99.90;;;;;;5026780;28;20021;-59
2022/08/10 02:36:06;;;;;;;8.68;2.00;;;15.30;99.90;;;;;;5017861;28;20494;-59
2022/08/10 02:38:36;;;;;;;5.65;2.40;;;15.20;99.90;;;;;;5015579;28;20026;-59
2022/08/10 02:41:11;;;;;;;5.78;1.95;;;15.30;99.90;;;;;;5022101;28;20123;-59
2022/08/10 02:43:50;;;;;;;3.75;2.05;;;15.40;99.90;;;;;;4994852;28;20088;-59
2022/08/10 02:46:27;;;;;;;3.88;1.95;;;15.40;99.90;;;;;;5006546;28;20320;-60
2022/08/10 02:49:03;;;;;;;3.63;2.03;;;15.40;99.90;;;;;;5007880;28;20030;-60
2022/08/10 02:51:41;;;;;;;4.50;2.33;;;15.30;99.90;;;;;;5011506;28;20083;-59
2022/08/10 02:54:13;;;;;;;4.10;1.85;;;15.30;99.90;;;;;;4999973;28;20030;-60
2022/08/10 02:56:50;;;;;;;6.28;4.28;;;15.20;99.90;;;;;;5012220;28;20112;-60
2022/08/10 02:59:24;;;;;;;5.82;2.30;;;15.20;99.90;;;;;;5003886;28;20037;-60
2022/08/10 03:01:54;;;;;;;5.32;2.53;;;15.30;99.90;;;;;;5013571;28;20025;-59
2022/08/10 03:04:40;;;;;;;2.75;2.10;;;15.30;99.90;;;;;;5003868;28;20052;-60
2022/08/10 03:07:10;;;;;;;3.63;1.90;;;15.30;99.90;;;;;;5009522;28;20401;-60
2022/08/10 03:09:38;;;;;;;5.35;2.47;;;15.30;99.90;;;;;;5012370;28;20038;-60
2022/08/10 03:12:07;;;;;;;8.38;2.58;;;15.30;99.90;;;;;;5014885;28;20508;-60
2022/08/10 03:14:36;;;;;;;4.05;2.45;;;15.30;99.90;;;;;;5012564;28;20030;-60
2022/08/10 03:17:03;;;;;;;6.13;3.45;;;15.40;99.90;;;;;;5021471;28;20474;-60
2022/08/10 03:19:32;;;;;;;6.00;2.83;;;15.30;99.90;;;;;;5018836;28;20026;-60
2022/08/10 03:21:58;;;;;;;5.22;2.42;;;15.30;99.90;;;;;;5016470;28;20136;-60
2022/08/10 03:24:26;;;;;;;3.60;2.30;;;15.40;99.90;;;;;;5015346;28;20092;-60
2022/08/10 03:26:53;;;;;;;9.07;2.70;;;15.30;99.90;;;;;;5013855;28;20469;-59
2022/08/10 03:29:20;;;;;;;7.10;2.28;;;15.30;99.90;;;;;;5020298;28;20045;-61
2022/08/10 03:31:48;;;;;;;6.10;2.55;;;15.30;99.90;;;;;;5012963;28;20037;-61
2022/08/10 03:34:15;;;;;;;4.35;2.50;;;15.20;99.90;;;;;;5019315;28;20033;-61
2022/08/10 03:36:42;;;;;;;7.40;2.00;;;15.20;99.90;;;;;;5021454;28;20053;-61
2022/08/10 03:39:08;;;;;;;4.65;2.15;;;15.30;99.90;;;;;;5010326;28;20394;-61
2022/08/10 03:41:36;;;;;;;5.20;1.90;;;15.20;99.90;;;;;;5008895;28;20026;-61
2022/08/10 03:44:04;;;;;;;3.10;2.50;;;15.20;99.90;;;;;;5023565;22;20096;-65
2022/08/10 03:46:34;;;;;;;4.13;2.65;;;15.30;99.90;;;;;;5011559;28;20042;-64
2022/08/10 03:49:02;;;;;;;6.47;2.42;;;15.30;99.90;;;;;;5011109;28;20092;-63
2022/08/10 03:51:29;;;;;;;10.45;2.47;;;15.30;99.90;;;;;;5012902;28;20058;-63
2022/08/10 03:53:55;;;;;;;13.80;3.28;;;15.30;99.90;;;;;;5011542;28;20077;-63
2022/08/10 03:56:22;;;;;;;9.88;3.22;;;15.30;99.90;;;;;;5007151;28;20030;-63
2022/08/10 03:58:48;;;;;;;5.85;2.40;;;15.40;99.90;;;;;;5007499;28;20076;-63
2022/08/10 04:01:14;;;;;;;4.32;2.58;;;15.30;99.90;;;;;;5011638;28;20033;-64
2022/08/10 04:03:40;;;;;;;4.28;2.30;;;15.40;99.90;;;;;;5012942;28;20030;-64
2022/08/10 04:06:08;;;;;;;6.63;2.72;;;15.40;99.90;;;;;;5011104;28;20049;-64
2022/08/10 04:08:33;;;;;;;5.03;2.95;;;15.40;99.90;;;;;;5012061;28;20091;-63
2022/08/10 04:10:59;;;;;;;5.45;3.90;;;15.40;99.90;;;;;;5009390;28;20482;-62
2022/08/10 04:13:25;;;;;;;5.55;2.90;;;15.40;99.90;;;;;;5007128;28;20168;-63
2022/08/10 04:15:51;;;;;;;3.80;2.45;;;15.40;99.90;;;;;;5012672;28;20112;-63
2022/08/10 04:18:16;;;;;;;8.63;3.38;;;15.40;99.90;;;;;;5011970;28;20026;-63
2022/08/10 04:20:54;;;;;;;7.13;2.80;;;15.40;99.90;;;;;;5007853;28;20477;-63
2022/08/10 04:23:24;;;;;;;5.60;2.53;;;15.30;99.90;;;;;;5005039;28;20057;-64
2022/08/10 04:25:51;;;;;;;8.15;3.17;;;15.30;99.90;;;;;;5010335;28;20049;-64
2022/08/10 04:28:17;;;;;;;8.20;3.47;;;15.30;99.90;;;;;;5011581;28;20030;-64
2022/08/10 04:30:46;;;;;;;6.38;2.95;;;15.30;99.90;;;;;;5011063;28;20045;-62
2022/08/10 04:33:14;;;;;;;5.78;2.90;;;15.30;99.90;;;;;;5009016;28;20079;-63
2022/08/10 04:35:41;;;;;;;6.72;3.08;;;15.20;99.90;;;;;;5010621;28;20026;-63
2022/08/10 04:38:08;;;;;;;7.75;2.75;;;15.30;99.90;;;;;;5005213;28;20021;-64
2022/08/10 04:40:34;;;;;;;8.30;3.67;;;15.30;99.90;;;;;;5012255;28;20022;-63
2022/08/10 04:43:05;;;;;;;7.47;3.17;;;15.30;99.90;;;;;;5010091;28;20045;-63
2022/08/10 04:45:31;;;;;;;9.52;3.25;;;15.30;99.90;;;;;;5011790;28;20026;-63
2022/08/10 04:47:56;;;;;;;8.23;2.78;;;15.20;99.90;;;;;;5007018;28;20033;-63
2022/08/10 04:50:22;;;;;;;7.60;3.13;;;15.30;99.90;;;;;;5011235;28;20367;-63
2022/08/10 04:52:48;;;;;;;6.75;3.50;;;15.40;99.90;;;;;;5011641;28;20460;-65
2022/08/10 04:55:13;;;;;;;5.43;2.90;;;15.40;99.90;;;;;;5009631;28;20038;-64
2022/08/10 04:57:39;;;;;;;6.40;2.88;;;15.40;99.90;;;;;;5011238;28;20033;-64
2022/08/10 05:00:05;;;;;;;6.55;2.60;;;15.50;99.90;;;;;;5008890;28;20512;-63
2022/08/10 05:02:31;;;;;;;5.00;2.75;;;15.50;99.90;;;;;;5011187;28;20079;-62
2022/08/10 05:04:56;;;;;;;6.53;2.45;;;15.50;99.90;;;;;;5006820;28;20038;-64
2022/08/10 05:07:22;;;;;;;8.32;2.80;;;15.60;99.90;;;;;;5011822;28;20429;-63
2022/08/10 05:09:49;;;;;;;6.03;2.97;;;15.60;99.90;;;;;;5010181;28;20093;-64
2022/08/10 05:12:15;;;;;;;9.65;2.90;;;15.60;99.90;;;;;;5009050;28;20018;-64
2022/08/10 05:14:40;;;;;;;9.88;3.33;;;15.60;99.90;;;;;;5006974;28;20382;-64
2022/08/10 05:17:06;;;;;;;2.60;2.35;;;15.50;99.90;;;;;;5009087;28;20034;-63
2022/08/10 05:19:31;;;;;;;7.65;3.10;;;15.50;99.90;;;;;;5011058;28;20037;-63
2022/08/10 05:21:57;;;;;;;6.47;2.70;;;15.50;99.90;;;;;;5007399;28;20080;-63
2022/08/10 05:24:23;;;;;;;5.72;2.65;;;15.50;99.90;;;;;;5003314;28;20100;-64
2022/08/10 05:26:49;;;;;;;8.75;3.17;;;15.50;99.90;;;;;;4999027;28;20022;-65
2022/08/10 05:29:14;;;;;;;5.60;3.15;;;15.50;99.90;;;;;;5002019;28;20046;-65
2022/08/10 05:31:40;;;;;;;7.53;3.50;;;15.60;99.90;;;;;;5011139;28;20488;-65
2022/08/10 05:34:06;;;;;;;7.38;3.67;;;15.70;99.90;;;;;;5009132;28;20033;-64
2022/08/10 05:36:32;;;;;;;6.20;3.10;;;15.70;99.90;;;;;;5009422;28;20091;-64
2022/08/10 05:39:01;;;;;;;13.27;3.83;;;15.80;99.90;;;;;;5006606;28;20030;-64
2022/08/10 05:41:27;;;;;;;7.68;3.92;;;16.00;99.90;;;;;;5009927;28;20026;-63
2022/08/10 05:43:55;;;;;;;7.75;2.90;;;16.00;99.90;;;;;;5008830;28;20052;-63
2022/08/10 05:46:20;;;;;;;11.48;3.28;;;16.10;99.90;;;;;;5009365;28;20088;-64
2022/08/10 05:48:46;;;;;;;7.25;3.28;;;16.20;99.90;;;;;;5010473;28;20017;-62
2022/08/10 05:51:12;;;;;;;9.00;3.05;;;16.30;99.90;;;;;;5006297;28;20034;-63
2022/08/10 05:53:38;;;;;;;8.15;3.20;;;16.30;99.90;;;;;;5010594;28;20079;-63
2022/08/10 05:56:06;;;;;;;8.60;3.47;;;16.30;99.90;;;;;;4997368;28;20033;-62
2022/08/10 05:58:36;;;;;;;8.15;3.33;;;16.40;99.90;;;;;;5006892;28;20017;-62
2022/08/10 06:01:07;;;;;;;10.85;3.40;;;16.40;99.90;;;;;;5008439;28;20018;-62
2022/08/10 06:03:38;;;;;;;4.30;2.80;;;16.40;99.90;;;;;;5009991;28;20486;-62
2022/08/10 06:06:08;;;;;;;7.63;3.47;;;16.50;99.90;;;;;;5005454;28;20109;-61
2022/08/10 06:08:37;;;;;;;12.30;3.72;;;16.50;99.90;;;;;;5007106;28;20079;-62
2022/08/10 06:11:05;;;;;;;10.50;3.78;;;16.60;99.90;;;;;;5007235;28;20034;-63
2022/08/10 06:16:24;;;;;;;6.90;2.83;;;16.70;99.90;;;;;;5001028;28;20046;-64
2022/08/10 06:18:51;;;;;;;11.40;3.53;;;16.70;99.90;;;;;;5001323;28;20486;-64
2022/08/10 06:21:18;;;;;;;11.95;4.07;;;16.70;99.90;;;;;;5009948;28;20486;-64
2022/08/10 06:23:44;;;;;;;5.03;3.00;;;16.90;99.90;;;;;;5009880;28;20037;-64
2022/08/10 06:26:10;;;;;;;7.95;3.20;;;16.90;99.90;;;;;;5005869;28;20030;-64
2022/08/10 06:28:46;;;;;;;12.43;3.63;;;17.00;99.90;;;;;;5008194;28;20029;-64
2022/08/10 06:31:12;;;;;;;14.15;4.15;;;17.00;99.90;;;;;;5007504;28;20041;-64
2022/08/10 06:33:40;;;;;;;3.97;2.70;;;17.00;99.90;;;;;;5007598;28;20117;-63
2022/08/10 06:36:08;;;;;;;7.78;3.25;;;17.10;99.90;;;;;;5006490;28;20034;-64
2022/08/10 06:38:37;;;;;;;10.50;3.38;;;17.10;99.90;;;;;;5009447;28;20092;-67
2022/08/10 06:41:11;;;;;;;11.57;3.78;;;17.10;99.90;;;;;;5006075;28;20482;-64
2022/08/10 06:43:41;;;;;;;9.00;3.53;;;17.10;99.90;;;;;;5008852;28;20050;-62
2022/08/10 06:46:11;;;;;;;9.43;3.20;;;17.30;99.90;;;;;;5006815;28;20143;-63
2022/08/10 06:48:48;;;;;;;11.55;3.75;;;17.40;99.90;;;;;;5005701;28;20140;-63
2022/08/10 06:51:22;;;;;;;8.73;3.30;;;17.40;99.90;;;;;;4995544;28;20052;-63
2022/08/10 06:53:51;;;;;;;11.55;2.90;;;17.40;99.90;;;;;;5007737;28;20018;-63
2022/08/10 06:56:26;;;;;;;6.75;2.50;;;17.50;99.90;;;;;;5007935;28;20121;-63
2022/08/10 06:59:06;;;;;;;8.50;3.05;;;17.60;99.90;;;;;;5006041;28;20057;-63
2022/08/10 07:01:36;;;;;;;6.43;2.53;;;17.70;99.90;;;;;;5006246;28;20084;-64
2022/08/10 07:04:07;;;;;;;8.73;3.30;;;17.80;99.90;;;;;;5006298;28;20022;-63
2022/08/10 07:06:35;;;;;;;7.18;2.90;;;17.80;99.90;;;;;;5009460;28;20486;-64
2022/08/10 07:09:02;;;;;;;7.97;2.47;;;17.90;99.90;;;;;;5006382;28;20033;-64
2022/08/10 07:11:30;;;;;;;10.77;3.08;;;18.00;99.90;;;;;;5009323;28;20030;-64
2022/08/10 07:13:57;;;;;;;5.28;2.85;;;18.00;99.90;;;;;;5000829;28;20026;-65
2022/08/10 07:16:28;;;;;;;5.18;2.65;;;18.00;99.90;;;;;;5007259;28;20034;-64
2022/08/10 07:18:56;;;;;;;8.38;2.45;;;18.10;99.90;;;;;;5002807;28;20095;-63
2022/08/10 07:21:25;;;;;;;6.70;2.65;;;18.20;99.90;;;;;;5006728;28;20030;-64
2022/08/10 07:23:52;;;;;;;5.50;2.22;;;18.40;99.90;;;;;;5007604;28;20034;-65
2022/08/10 07:26:19;;;;;;;5.47;2.55;;;18.40;99.90;;;;;;5008752;28;20052;-65
2022/08/10 07:28:47;;;;;;;11.60;2.25;;;18.50;99.90;;;;;;5006903;28;20030;-65
2022/08/10 07:31:22;;;;;;;6.07;2.15;;;18.60;99.90;;;;;;5006729;28;20065;-64
2022/08/10 07:33:50;;;;;;;5.65;1.92;;;18.70;99.90;;;;;;5009350;28;20026;-64
2022/08/10 07:36:19;;;;;;;5.70;1.63;;;18.80;99.90;;;;;;5007825;28;20053;-64
2022/08/10 07:38:47;;;;;;;8.57;3.15;;;19.00;99.90;;;;;;5006839;28;20038;-63
2022/08/10 07:41:16;;;;;;;4.93;1.90;;;19.20;99.90;;;;;;5005371;28;20065;-64
2022/08/10 07:43:44;;;;;;;5.18;1.67;;;19.30;99.90;;;;;;5000348;28;20137;-64
2022/08/10 07:46:13;;;;;;;12.95;2.50;;;19.40;99.90;;;;;;5007153;28;20030;-65
2022/08/10 07:48:47;;;;;;;8.00;2.03;;;19.60;99.90;;;;;;5007073;28;20022;-65
2022/08/10 07:51:17;;;;;;;5.05;2.08;;;19.70;99.90;;;;;;5003082;28;20563;-64
2022/08/10 07:53:46;;;;;;;4.95;2.00;;;19.80;99.90;;;;;;5008095;28;20498;-64
2022/08/10 07:56:14;;;;;;;5.45;1.80;;;19.90;99.90;;;;;;5002078;28;20033;-63
2022/08/10 07:58:55;;;;;;;4.85;1.58;;;20.00;99.90;;;;;;5007384;28;20018;-63
2022/08/10 08:01:28;;;;;;;8.95;2.05;;;20.00;99.90;;;;;;5007854;28;20033;-65
2022/08/10 08:03:55;;;;;;;3.70;1.30;;;20.20;99.90;;;;;;5006004;28;20029;-64
2022/08/10 08:06:22;;;;;;;7.38;2.10;;;20.20;99.90;;;;;;5007130;28;20037;-65
2022/08/10 08:08:48;;;;;;;3.75;1.48;;;20.20;99.90;;;;;;5007032;28;20065;-64
2022/08/10 08:11:15;;;;;;;3.45;1.42;;;20.40;99.90;;;;;;5006301;28;20084;-63
2022/08/10 08:13:42;;;;;;;4.18;1.70;;;20.60;99.90;;;;;;5001213;28;20534;-64
2022/08/10 08:16:09;;;;;;;4.57;1.40;;;20.60;99.90;;;;;;5005808;28;20025;-64
2022/08/10 08:18:36;;;;;;;5.38;1.70;;;20.80;99.90;;;;;;5008807;28;20026;-64
2022/08/10 08:21:02;;;;;;;6.35;2.03;;;21.00;99.90;;;;;;5005995;28;20018;-64
2022/08/10 08:23:30;;;;;;;7.47;1.33;;;21.00;99.90;;;;;;5000577;28;20517;-65
2022/08/10 08:25:56;;;;;;;4.35;1.52;;;21.10;99.90;;;;;;5005703;28;20042;-62
2022/08/10 08:28:23;;;;;;;5.18;1.60;;;21.20;99.90;;;;;;5007166;28;20030;-64
2022/08/10 08:30:50;;;;;;;7.68;2.00;;;21.20;99.90;;;;;;5008747;28;20053;-64
2022/08/10 08:33:18;;;;;;;7.60;1.40;;;21.30;99.90;;;;;;5009764;28;20045;-63
2022/08/10 08:35:44;;;;;;;5.03;1.63;;;21.40;99.90;;;;;;5011715;28;20029;-65
2022/08/10 08:38:12;;;;;;;5.50;1.48;;;21.50;99.90;;;;;;5007935;28;20386;-64
2022/08/10 08:40:43;;;;;;;5.57;1.83;;;21.60;99.90;;;;;;5011783;28;20420;-64
2022/08/10 08:43:43;;;;;;;3.72;1.08;;;21.70;99.90;;;;;;5008815;28;20053;-64
2022/08/10 08:46:18;;;;;;;3.42;1.35;;;21.70;99.90;;;;;;5007910;28;20037;-63
2022/08/10 08:48:51;;;;;;;2.30;1.33;;;21.90;99.90;;;;;;5008077;28;20033;-63
2022/08/10 08:51:23;;;;;;;4.70;1.45;;;22.00;99.90;;;;;;5003838;28;20195;-63
2022/08/10 08:54:08;;;;;;;5.07;1.23;;;22.20;99.90;;;;;;5008506;28;20030;-64
2022/08/10 08:56:48;;;;;;;5.97;1.30;;;22.60;99.90;;;;;;5003317;28;20101;-64
2022/08/10 08:59:28;;;;;;;5.97;1.30;;;22.90;99.90;;;;;;5009632;28;20080;-65
2022/08/10 09:02:19;;;;;;;4.93;1.30;;;23.10;99.90;;;;;;5009812;28;20037;-64
2022/08/10 09:05:21;;;;;;;5.72;1.38;;;23.20;99.90;;;;;;5011593;28;20044;-64
2022/08/10 09:07:54;;;;;;;5.93;1.10;;;23.30;99.90;;;;;;5009574;28;20132;-64
2022/08/10 09:10:39;;;;;;;5.15;1.40;;;23.40;99.90;;;;;;5009669;28;20166;-65
2022/08/10 09:13:25;;;;;;;5.75;1.10;;;23.50;99.90;;;;;;5009231;28;20045;-64
2022/08/10 09:16:21;;;;;;;3.33;1.33;;;23.50;99.90;;;;;;5007297;28;20034;-64
2022/08/10 09:19:04;;;;;;;1.73;0.98;;;23.80;99.90;;;;;;5004240;28;20033;-64
2022/08/10 09:21:42;;;;;;;3.53;1.20;;;23.90;99.90;;;;;;5001298;28;20022;-65
2022/08/10 09:24:16;;;;;;;4.82;1.25;;;24.10;99.90;;;;;;5004571;28;20556;-64
2022/08/10 09:26:50;;;;;;;2.72;0.95;;;24.30;99.90;;;;;;5007887;28;20033;-64
2022/08/10 09:29:28;;;;;;;3.58;1.15;;;24.50;99.90;;;;;;5007751;28;20030;-65
2022/08/10 09:32:08;;;;;;;4.97;2.10;;;24.70;99.90;;;;;;5002797;28;20081;-62
2022/08/10 09:35:02;;;;;;;6.53;1.25;;;24.70;99.90;;;;;;5004311;28;20034;-64
2022/08/10 09:38:03;;;;;;;5.25;1.00;;;24.90;99.90;;;;;;5001957;28;20053;-64
2022/08/10 09:40:37;;;;;;;5.28;1.00;;;25.00;99.90;;;;;;4993862;28;20033;-64
2022/08/10 09:43:19;;;;;;;4.40;1.20;;;25.20;99.90;;;;;;5005690;28;20046;-64
2022/08/10 09:46:14;;;;;;;3.15;1.10;;;25.40;99.90;;;;;;5007345;28;20168;-65
2022/08/10 09:48:49;;;;;;;2.58;1.20;;;25.40;99.90;;;;;;5007940;28;20026;-64
2022/08/10 09:51:50;;;;;;;3.70;1.45;;;25.50;99.90;;;;;;5008155;28;20034;-64
2022/08/10 09:54:30;;;;;;;5.40;1.20;;;25.60;99.90;;;;;;5000383;28;20203;-64
2022/08/10 09:57:11;;;;;;;5.32;1.38;;;25.80;99.90;;;;;;4998030;28;20172;-64
2022/08/10 09:59:47;;;;;;;3.63;1.45;;;25.90;99.90;;;;;;5010624;28;20030;-64
2022/08/10 10:02:39;;;;;;;6.75;1.95;;;25.90;99.90;;;;;;5001220;28;20421;-64
2022/08/10 10:05:23;;;;;;;7.72;2.15;;;26.00;99.90;;;;;;5008598;28;20042;-64
2022/08/10 10:08:04;;;;;;;6.07;1.63;;;26.00;99.90;;;;;;5008321;28;20079;-64
2022/08/10 10:10:39;;;;;;;5.33;1.23;;;26.00;99.90;;;;;;5010549;28;20172;-64
2022/08/10 10:13:11;;;;;;;4.63;1.40;;;26.10;99.90;;;;;;5005643;28;20208;-65
2022/08/10 10:15:36;;;;;;;;;;;26.20;99.90;;;;;;5006784;28;20030;-64
2022/08/10 10:18:06;;;;;;;2.85;1.08;;;26.50;99.90;;;;;;5008499;28;20012;-65
2022/08/10 10:20:47;;;;;;;7.28;1.40;;;26.50;99.90;;;;;;5008139;28;20510;-64
2022/08/10 10:23:22;;;;;;;5.43;0.90;;;26.60;99.90;;;;;;5007314;28;20578;-64
2022/08/10 10:25:50;;;;;;;10.70;3.28;;;26.70;99.90;;;;;;5005595;28;20033;-63
2022/08/10 10:28:34;;;;;;;5.05;1.65;;;26.70;99.90;;;;;;5006944;28;20033;-64
2022/08/10 10:31:03;;;;;;;5.40;1.20;;;26.90;99.90;;;;;;5008252;28;20069;-65
2022/08/10 10:33:53;;;;;;;7.20;1.23;;;26.90;99.90;;;;;;5010150;28;20053;-64
2022/08/10 10:36:20;;;;;;;4.20;1.60;;;26.90;99.50;;;;;;5008620;28;20076;-64
2022/08/10 10:38:47;;;;;;;5.03;1.10;;;27.10;99.60;;;;;;4988254;28;20125;-64
2022/08/10 10:41:19;;;;;;;7.85;2.55;;;27.10;98.60;;;;;;5005625;28;20037;-63
2022/08/10 10:43:54;;;;;;;1.77;0.98;;;27.10;98.80;;;;;;5008572;28;20061;-64
2022/08/10 10:46:47;;;;;;;5.70;1.73;;;27.20;97.20;;;;;;5008794;28;20046;-64
2022/08/10 10:49:31;;;;;;;5.72;1.30;;;27.40;97.10;;;;;;5007142;28;20513;-64
2022/08/10 10:52:08;;;;;;;5.38;0.88;;;27.60;97.10;;;;;;5007894;28;20026;-64
2022/08/10 10:55:16;;;;;;;2.83;1.27;;;27.60;97.50;;;;;;5008150;28;20034;-64
2022/08/10 10:57:55;;;;;;;1.40;0.95;;;27.90;95.90;;;;;;5005420;28;20034;-64
2022/08/10 11:00:24;;;;;;;3.85;1.10;;;27.90;95.30;;;;;;5007618;28;20088;-64
2022/08/10 11:03:42;;;;;;;3.15;1.10;;;27.90;94.90;;;;;;5007986;28;20036;-63
2022/08/10 11:06:35;;;;;;;2.72;1.30;;;28.10;94.60;;;;;;4998980;28;20056;-64
2022/08/10 11:09:06;;;;;;;4.22;1.35;;;28.40;92.60;;;;;;5000654;28;20124;-63
2022/08/10 11:11:35;;;;;;;4.63;1.73;;;28.70;91.00;;;;;;5008952;28;20084;-65
2022/08/10 11:14:19;;;;;;;4.13;1.20;;;28.90;90.60;;;;;;5002304;28;20069;-64
2022/08/10 11:16:51;;;;;;;5.70;1.13;;;29.30;90.20;;;;;;5009484;28;20037;-64
2022/08/10 11:19:25;;;;;;;5.53;1.65;;;29.70;87.90;;;;;;5004517;28;20030;-65
2022/08/10 11:22:27;;;;;;;4.35;1.15;;;30.20;86.40;;;;;;5000630;28;20034;-65
2022/08/10 11:24:59;;;;;;;2.65;0.98;;;30.40;82.90;;;;;;5004860;28;20367;-64
2022/08/10 11:27:43;;;;;;;2.42;1.23;;;30.70;80.60;;;;;;5001763;28;20065;-65
2022/08/10 11:30:17;;;;;;;5.30;1.30;;;31.10;79.30;;;;;;5006015;28;20046;-65
2022/08/10 11:33:08;;;;;;;4.80;1.85;;;31.20;76.60;;;;;;5004423;28;20038;-65
2022/08/10 11:35:42;;;;;;;4.38;1.30;;;31.30;74.90;;;;;;5008400;28;20041;-64
2022/08/10 11:38:45;;;;;;;4.53;1.20;;;31.50;72.10;;;;;;5007496;28;20080;-65
2022/08/10 11:41:43;;;;;;;6.82;1.30;;;31.40;74.10;;;;;;5003102;28;20037;-64
2022/08/10 11:44:18;;;;;;;2.63;1.13;;;31.70;71.90;;;;;;5005043;28;20046;-65
2022/08/10 11:47:01;;;;;;;3.50;1.30;;;31.50;70.50;;;;;;5007807;28;20030;-65
2022/08/10 11:49:39;;;;;;;3.88;1.40;;;31.60;69.20;;;;;;5006831;28;20126;-65
2022/08/10 11:52:21;;;;;;;4.82;1.30;;;31.40;68.80;;;;;;5006147;28;20069;-64
2022/08/10 11:54:52;;;;;;;3.65;1.02;;;31.60;64.70;;;;;;5003816;28;20655;-65
2022/08/10 11:57:19;;;;;;;3.63;1.30;;;31.80;63.20;;;;;;5005040;28;20025;-64
2022/08/10 11:59:57;;;;;;;2.97;1.10;;;32.20;62.10;;;;;;5005378;28;20228;-64
2022/08/10 12:02:40;;;;;;;2.95;1.10;;;32.10;61.50;;;;;;5005455;28;20025;-64
2022/08/10 12:05:10;;;;;;;6.45;1.70;;;32.60;61.90;;;;;;4998618;28;20080;-65
2022/08/10 12:07:44;;;;;;;4.97;1.40;;;32.60;60.40;;;;;;5009736;28;20026;-65
2022/08/10 12:10:12;;;;;;;1.75;1.10;;;32.70;59.60;;;;;;5000047;28;20305;-65
2022/08/10 12:12:50;;;;;;;3.13;1.30;;;32.70;58.30;;;;;;5008706;28;20038;-65
2022/08/10 12:15:23;;;;;;;3.17;1.10;;;32.90;58.80;;;;;;5006204;28;20046;-64
2022/08/10 12:17:54;;;;;;;4.13;1.30;;;33.10;57.10;;;;;;5012498;28;20037;-64
2022/08/10 12:20:36;;;;;;;3.15;1.20;;;33.40;57.30;;;;;;5012034;28;20371;-65
2022/08/10 12:23:21;;;;;;;3.90;1.27;;;33.70;56.00;;;;;;5010873;28;20030;-65
2022/08/10 12:25:59;;;;;;;5.82;1.10;;;33.40;55.50;;;;;;5011331;28;20117;-64
2022/08/10 12:28:35;;;;;;;5.72;1.10;;;33.20;55.00;;;;;;5011700;28;20501;-64
2022/08/10 12:31:06;;;;;;;11.43;2.40;;;33.20;55.70;;;;;;5008598;28;20117;-65
2022/08/10 12:33:39;;;;;;;6.30;1.20;;;33.50;55.00;;;;;;5009209;28;20471;-64
2022/08/10 12:36:19;;;;;;;4.13;1.02;;;33.40;54.50;;;;;;5011429;28;20061;-64
2022/08/10 12:39:12;;;;;;;3.72;1.17;;;33.60;53.70;;;;;;5012452;28;20066;-64
2022/08/10 12:41:59;;;;;;;4.18;1.38;;;33.80;53.00;;;;;;5009970;28;20038;-62
2022/08/10 12:44:53;;;;;;;4.07;1.50;;;33.80;52.60;;;;;;5009217;28;20061;-63
2022/08/10 12:47:35;;;;;;;4.22;1.20;;;34.30;52.50;;;;;;4998623;28;20026;-63
2022/08/10 12:50:20;;;;;;;5.95;1.92;;;34.30;51.80;;;;;;5007648;28;20037;-64
2022/08/10 12:53:10;;;;;;;1.75;1.13;;;34.50;52.10;;;;;;5012099;28;20449;-64
2022/08/10 12:55:37;;;;;;;3.28;1.63;;;34.20;52.60;;;;;;5003189;28;20410;-65
2022/08/10 12:58:06;;;;;;;2.63;1.20;;;34.90;51.00;;;;;;5010253;28;20116;-64
2022/08/10 13:00:33;;;;;;;5.47;2.15;;;35.50;50.70;;;;;;4998471;28;20036;-63
2022/08/10 13:03:01;;;;;;;3.88;1.25;;;35.40;50.70;;;;;;5010251;28;20064;-65
2022/08/10 13:05:30;;;;;;;4.93;1.55;;;35.50;49.60;;;;;;5010598;28;20025;-64
2022/08/10 13:10:53;;;;;;;10.95;2.42;;;34.90;49.90;;;;;;5006458;28;20099;-63
2022/08/10 13:13:23;;;;;;;4.82;1.92;;;35.30;49.20;;;;;;4998968;28;20398;-64
2022/08/10 13:15:51;;;;;;;4.25;1.10;;;35.30;49.50;;;;;;5008863;28;20072;-64
2022/08/10 13:18:26;;;;;;;5.22;1.45;;;35.80;49.10;;;;;;5009502;28;20026;-61